Nypd 454 — WDI2785 — position and weather

sailwx.info

Track history (hours):
 
Tides and Currents Weather Stations Pressure Air Temp Water Temp Dewpoint Dewpoint Depression Visibility Wind Speed Wind Dir Waves Ship Positions

Nypd 454

Owner: New York City Police Department HARBOR UNIT, Brooklyn, NY. More information available from US FCC via Universal Licensing System.

Last reported at 2017-Oct-01 19:19 UTC. Time now 2017-Dec-17 06:15 UTC.
Position N 40°39' W 074°02'.
Warning: this ship's position is months out of date.

Length 14 m; draft 1.5 m.

Type: Law enforcement. MMSI: 367681730.

Date/timePositionNaut miles runAvg speedWind from/ knotsBaromVisibWave heightAir tempDewpointWater temp
2017-Oct-01 19:19N 40°39' W 074°02'412.8
2017-Oct-01 19:00N 40°35' W 074°01'4 0.1
2017-Sep-30 00:26N 40°39' W 074°02'511.3
2017-Sep-30 00:00N 40°34' W 074°00'4 1.1
2017-Sep-29 19:59N 40°35' W 073°55'1 2.8
2017-Sep-29 19:30N 40°36' W 073°54'0 0.3
2017-Sep-29 18:59N 40°36' W 073°54'3 5.8
2017-Sep-29 18:27N 40°34' W 073°57'613.0
2017-Sep-29 18:00N 40°39' W 074°02'0 0.0
2017-Sep-27 20:26N 40°39' W 074°02'4 9.1
2017-Sep-27 20:00N 40°42' W 073°60'0 0.3
2017-Sep-27 19:30N 40°42' W 073°60'2 3.5
2017-Sep-27 19:01N 40°41' W 074°01'2 0.1
2017-Sep-27 02:00N 40°39' W 074°02'0 0.0
2017-Sep-27 01:30N 40°39' W 074°02'0 0.0
2017-Sep-27 01:00N 40°39' W 074°02'0 0.0
2017-Sep-27 00:30N 40°39' W 074°02'0 0.0
2017-Sep-27 00:00N 40°39' W 074°02'6 5.4
2017-Sep-26 22:52N 40°34' W 073°56'719.0
2017-Sep-26 22:31N 40°40' W 074°01'1 1.5
2017-Sep-26 22:00N 40°40' W 074°01'611.2
2017-Sep-26 21:30N 40°46' W 074°00'0 0.0
2017-Sep-26 21:00N 40°46' W 074°00'7 0.4
2017-Sep-26 00:32N 40°39' W 074°02'0 0.0
2017-Sep-26 00:30N 40°39' W 074°02'611.5
2017-Sep-25 23:59N 40°34' W 073°57'1 0.3
2017-Sep-25 21:08N 40°35' W 073°56'415.5
2017-Sep-25 20:54N 40°38' W 073°53'2 1.0
2017-Sep-25 19:15N 40°38' W 073°51'519.6
2017-Sep-25 19:01N 40°34' W 073°54'4 8.3
2017-Sep-25 18:30N 40°34' W 073°59'713.5
2017-Sep-25 18:00N 40°40' W 074°03'2 0.1
2017-Sep-25 00:31N 40°39' W 074°02'015.4
2017-Sep-25 00:31N 40°39' W 074°02'4 1.7
2017-Sep-24 22:12N 40°35' W 073°60'316.0
2017-Sep-24 22:00N 40°38' W 074°03'10 8.6
2017-Sep-24 20:52N 40°46' W 073°56'513.9
2017-Sep-24 20:30N 40°42' W 074°00'0 0.0
2017-Sep-24 20:00N 40°42' W 074°00'3 6.2
2017-Sep-24 19:30N 40°39' W 074°02'  
Track history (hours):
 
Tides and Currents Weather Stations Pressure Air Temp Water Temp Dewpoint Dewpoint Depression Visibility Wind Speed Wind Dir Waves Ship Positions

Nypd 454

Owner: New York City Police Department HARBOR UNIT, Brooklyn, NY. More information available from US FCC via Universal Licensing System.

Last reported at 2017-Oct-01 19:19 UTC. Time now 2017-Dec-17 06:15 UTC.
Position N 40°39' W 074°02'.
Warning: this ship's position is months out of date.

Length 14 m; draft 1.5 m.

Type: Law enforcement. MMSI: 367681730.

Date/timePositionNaut miles runAvg speedWind from/ knotsBaromVisibWave heightAir tempDewpointWater temp
2017-Oct-01 19:19N 40°39' W 074°02'412.8
2017-Oct-01 19:00N 40°35' W 074°01'4 0.1
2017-Sep-30 00:26N 40°39' W 074°02'511.3
2017-Sep-30 00:00N 40°34' W 074°00'4 1.1
2017-Sep-29 19:59N 40°35' W 073°55'1 2.8
2017-Sep-29 19:30N 40°36' W 073°54'0 0.3
2017-Sep-29 18:59N 40°36' W 073°54'3 5.8
2017-Sep-29 18:27N 40°34' W 073°57'613.0
2017-Sep-29 18:00N 40°39' W 074°02'0 0.0
2017-Sep-27 20:26N 40°39' W 074°02'4 9.1
2017-Sep-27 20:00N 40°42' W 073°60'0 0.3
2017-Sep-27 19:30N 40°42' W 073°60'2 3.5
2017-Sep-27 19:01N 40°41' W 074°01'2 0.1
2017-Sep-27 02:00N 40°39' W 074°02'0 0.0
2017-Sep-27 01:30N 40°39' W 074°02'0 0.0
2017-Sep-27 01:00N 40°39' W 074°02'0 0.0
2017-Sep-27 00:30N 40°39' W 074°02'0 0.0
2017-Sep-27 00:00N 40°39' W 074°02'6 5.4
2017-Sep-26 22:52N 40°34' W 073°56'719.0
2017-Sep-26 22:31N 40°40' W 074°01'1 1.5
2017-Sep-26 22:00N 40°40' W 074°01'611.2
2017-Sep-26 21:30N 40°46' W 074°00'0 0.0
2017-Sep-26 21:00N 40°46' W 074°00'7 0.4
2017-Sep-26 00:32N 40°39' W 074°02'0 0.0
2017-Sep-26 00:30N 40°39' W 074°02'611.5
2017-Sep-25 23:59N 40°34' W 073°57'1 0.3
2017-Sep-25 21:08N 40°35' W 073°56'415.5
2017-Sep-25 20:54N 40°38' W 073°53'2 1.0
2017-Sep-25 19:15N 40°38' W 073°51'519.6
2017-Sep-25 19:01N 40°34' W 073°54'4 8.3
2017-Sep-25 18:30N 40°34' W 073°59'713.5
2017-Sep-25 18:00N 40°40' W 074°03'2 0.1
2017-Sep-25 00:31N 40°39' W 074°02'015.4
2017-Sep-25 00:31N 40°39' W 074°02'4 1.7
2017-Sep-24 22:12N 40°35' W 073°60'316.0
2017-Sep-24 22:00N 40°38' W 074°03'10 8.6
2017-Sep-24 20:52N 40°46' W 073°56'513.9
2017-Sep-24 20:30N 40°42' W 074°00'0 0.0
2017-Sep-24 20:00N 40°42' W 074°00'3 6.2
2017-Sep-24 19:30N 40°39' W 074°02'  

Dump ship's entire track history